createdAt,value
2019-06-07T00:00:57.713Z,12.53
2019-06-07T00:06:03.218Z,11.83
2019-06-07T00:11:11.054Z,12.53
2019-06-07T00:16:19.879Z,12.90
2019-06-07T00:22:12.005Z,11.53
2019-06-07T00:26:32.931Z,12.55
2019-06-07T00:31:39.737Z,12.58
2019-06-07T00:36:46.749Z,13.25
2019-06-07T00:41:52.929Z,11.18
2019-06-07T00:47:00.003Z,10.65
2019-06-07T00:52:05.662Z,12.47
2019-06-07T00:57:12.416Z,11.25
2019-06-07T01:02:24.874Z,11.50
2019-06-07T01:07:26.921Z,12.15
2019-06-07T01:12:32.835Z,11.48
2019-06-07T01:17:50.151Z,12.00
2019-06-07T01:22:46.139Z,13.38
2019-06-07T01:27:51.778Z,12.07
2019-06-07T01:32:58.165Z,13.60
2019-06-07T01:38:03.733Z,14.18
2019-06-07T01:43:09.205Z,13.10
2019-06-07T01:48:17.669Z,15.15
2019-06-07T01:53:23.800Z,14.33
2019-06-07T01:58:30.252Z,15.40
2019-06-07T02:03:40.899Z,13.50
2019-06-07T02:08:47.635Z,13.68
2019-06-07T02:13:54.289Z,13.05
2019-06-07T02:19:02.241Z,14.85
2019-06-07T02:24:09.123Z,14.43
2019-06-07T02:29:14.614Z,11.35
2019-06-07T02:34:21.494Z,12.25
2019-06-07T02:39:30.809Z,17.45
2019-06-07T02:44:39.715Z,13.45
2019-06-07T02:49:44.622Z,15.43
2019-06-07T02:54:50.566Z,11.57
2019-06-07T03:00:07.558Z,16.07
2019-06-07T03:05:06.441Z,13.68
2019-06-07T03:10:12.730Z,14.73
2019-06-07T03:15:33.025Z,13.75
2019-06-07T03:20:27.612Z,11.18
2019-06-07T03:25:39.225Z,13.95
2019-06-07T03:31:00.946Z,15.55
2019-06-07T03:35:54.342Z,14.50
2019-06-07T03:41:00.173Z,14.20
2019-06-07T03:46:06.398Z,15.15
2019-06-07T03:51:24.586Z,12.82
2019-06-07T03:56:20.881Z,15.18
2019-06-07T04:01:28.593Z,12.30
2019-06-07T04:06:36.857Z,15.65
2019-06-07T04:11:42.222Z,12.25
2019-06-07T04:16:48.637Z,13.83
2019-06-07T04:21:55.430Z,11.03
2019-06-07T04:27:01.064Z,10.72
2019-06-07T04:32:07.308Z,13.25
2019-06-07T04:37:14.077Z,12.73
2019-06-07T04:42:21.525Z,11.65
2019-06-07T04:47:29.629Z,14.10
2019-06-07T04:52:42.760Z,15.38
2019-06-07T04:57:44.195Z,13.93
2019-06-07T05:02:49.867Z,12.55
2019-06-07T05:07:55.450Z,10.48
2019-06-07T05:13:01.861Z,11.43
2019-06-07T05:18:08.005Z,13.35
2019-06-07T05:23:59.105Z,13.20
2019-06-07T05:28:21.923Z,13.32
2019-06-07T05:33:27.504Z,14.53
2019-06-07T05:38:33.480Z,11.63
2019-06-07T05:43:44.656Z,14.65
2019-06-07T05:48:46.630Z,12.85
2019-06-07T05:53:52.379Z,13.80
2019-06-07T05:58:57.853Z,11.93
2019-06-07T06:04:03.534Z,13.35
2019-06-07T06:09:13.876Z,12.82
2019-06-07T06:14:18.167Z,13.98
2019-06-07T06:19:25.884Z,12.47
2019-06-07T06:24:31.729Z,11.10
2019-06-07T06:29:38.682Z,11.60
2019-06-07T06:34:49.337Z,14.15
2019-06-07T06:39:53.388Z,10.25
2019-06-07T06:45:00.671Z,11.95
2019-06-07T06:50:07.503Z,11.50
2019-06-07T06:55:13.329Z,11.93
2019-06-07T07:00:20.971Z,13.30
2019-06-07T07:05:26.712Z,12.73
2019-06-07T07:10:40.777Z,13.18
2019-06-07T07:15:49.980Z,13.15
2019-06-07T07:20:57.496Z,9.60
2019-06-07T07:26:02.785Z,11.12
2019-06-07T07:31:08.454Z,12.75
2019-06-07T07:36:35.652Z,10.28
2019-06-07T07:41:21.427Z,14.10
2019-06-07T07:46:29.836Z,10.13
2019-06-07T07:51:34.423Z,12.25
2019-06-07T07:56:40.092Z,12.78
2019-06-07T08:01:46.130Z,13.88
2019-06-07T08:06:54.226Z,15.85
2019-06-07T08:12:02.398Z,14.65
2019-06-07T08:17:09.508Z,13.58
2019-06-07T08:22:16.070Z,13.13
2019-06-07T08:27:26.490Z,15.15
2019-06-07T08:32:30.155Z,15.68
2019-06-07T08:43:02.921Z,17.30
2019-06-07T08:47:58.109Z,14.45
2019-06-07T08:53:11.458Z,17.57
2019-06-07T08:58:12.017Z,15.48
2019-06-07T09:03:18.410Z,20.08
2019-06-07T09:08:30.518Z,20.12
2019-06-07T09:13:33.343Z,16.80
2019-06-07T09:18:43.515Z,14.53
2019-06-07T09:23:47.607Z,18.27
2019-06-07T09:28:53.569Z,16.10
2019-06-07T09:34:04.758Z,15.70
2019-06-07T09:39:12.101Z,15.72
2019-06-07T09:44:25.075Z,16.48
2019-06-07T09:49:32.292Z,17.00
2019-06-07T09:55:04.066Z,15.63
2019-06-07T09:59:37.237Z,15.98
2019-06-07T10:04:43.117Z,15.23
2019-06-07T10:14:58.674Z,15.08
2019-06-07T10:20:05.876Z,15.05
2019-06-07T10:25:15.676Z,15.78
2019-06-07T10:30:21.474Z,16.23
2019-06-07T10:35:28.856Z,13.35
2019-06-07T10:40:34.666Z,16.48
2019-06-07T10:45:40.195Z,14.43
2019-06-07T10:50:46.195Z,13.43
2019-06-07T10:55:52.325Z,12.85
2019-06-07T11:00:59.288Z,10.13
2019-06-07T11:06:05.714Z,11.22
2019-06-07T11:11:12.216Z,11.85
2019-06-07T11:16:19.661Z,10.50
2019-06-07T11:21:26.959Z,13.50
2019-06-07T11:26:32.891Z,12.43
2019-06-07T11:31:40.411Z,7.92
2019-06-07T11:36:45.873Z,9.78
2019-06-07T11:41:51.445Z,6.60
2019-06-07T11:46:57.078Z,10.03
2019-06-07T11:52:04.063Z,8.73
2019-06-07T11:57:10.893Z,6.00
2019-06-07T12:02:17.665Z,9.23
2019-06-07T12:07:23.834Z,6.97
2019-06-07T12:12:30.959Z,8.55
2019-06-07T12:17:38.340Z,5.22
2019-06-07T12:22:43.774Z,3.33
2019-06-07T12:27:50.830Z,3.27
2019-06-07T12:32:57.094Z,4.45
2019-06-07T12:38:03.649Z,4.20
2019-06-07T12:43:09.979Z,4.92
2019-06-07T12:48:20.624Z,5.72
2019-06-07T12:53:28.068Z,6.15
2019-06-07T12:58:36.270Z,5.00
2019-06-07T13:03:39.800Z,6.05
2019-06-07T13:08:45.433Z,5.37
2019-06-07T13:13:51.324Z,5.55
2019-06-07T13:18:58.829Z,5.95
2019-06-07T13:24:04.578Z,4.10
2019-06-07T13:29:10.896Z,4.53
2019-06-07T13:34:18.119Z,2.67
2019-06-07T13:39:26.481Z,3.15
2019-06-07T13:44:32.062Z,2.60
2019-06-07T13:49:37.451Z,2.85
2019-06-07T13:54:42.979Z,2.72
2019-06-07T13:59:48.839Z,5.42
2019-06-07T14:04:55.309Z,2.20
2019-06-07T14:10:01.784Z,3.67
2019-06-07T14:15:08.266Z,4.65
2019-06-07T14:20:15.218Z,3.42
2019-06-07T14:25:23.065Z,3.95
2019-06-07T14:30:30.524Z,4.90
2019-06-07T14:35:36.518Z,3.52
2019-06-07T14:40:42.071Z,4.62
2019-06-07T14:45:48.106Z,4.45
2019-06-07T14:50:54.334Z,4.67
2019-06-07T14:56:00.482Z,2.45
2019-06-07T15:01:06.164Z,4.28
2019-06-07T15:06:12.369Z,3.35
2019-06-07T15:11:17.915Z,4.55
2019-06-07T15:16:24.278Z,5.08
2019-06-07T15:21:30.815Z,6.50
2019-06-07T15:26:36.649Z,6.47
2019-06-07T15:31:42.506Z,3.52
2019-06-07T15:36:49.768Z,3.02
2019-06-07T15:41:55.490Z,3.37
2019-06-07T15:47:01.426Z,4.60
2019-06-07T15:52:06.855Z,5.65
2019-06-07T15:57:12.356Z,7.85
2019-06-07T16:02:17.764Z,3.90
2019-06-07T16:07:25.604Z,4.35
2019-06-07T16:12:32.468Z,3.65
2019-06-07T16:17:42.138Z,4.17
2019-06-07T16:22:48.508Z,4.28
2019-06-07T16:27:55.339Z,7.05
2019-06-07T16:33:04.325Z,3.58
2019-06-07T16:38:11.612Z,4.72
2019-06-07T16:43:19.136Z,3.87
2019-06-07T16:48:26.767Z,3.77
2019-06-07T16:53:40.358Z,4.92
2019-06-07T16:58:46.539Z,6.50
2019-06-07T17:03:53.336Z,6.03
2019-06-07T17:08:59.275Z,6.90
2019-06-07T17:14:05.523Z,5.62
2019-06-07T17:19:10.984Z,4.70
2019-06-07T17:24:16.958Z,11.57
2019-06-07T17:29:22.637Z,7.03
2019-06-07T17:34:31.539Z,5.45
2019-06-07T17:39:43.438Z,4.80
2019-06-07T17:44:49.382Z,4.37
2019-06-07T17:49:58.984Z,3.15
2019-06-07T17:55:09.146Z,3.52
2019-06-07T18:00:34.315Z,2.90
2019-06-07T18:05:27.755Z,3.77
2019-06-07T18:10:37.997Z,5.50
2019-06-07T18:15:52.832Z,3.80
2019-06-07T18:20:55.984Z,2.62
2019-06-07T18:26:01.738Z,2.55
2019-06-07T18:31:09.105Z,4.80
2019-06-07T18:36:15.083Z,4.03
2019-06-07T18:41:20.528Z,7.65
2019-06-07T18:46:27.580Z,2.60
2019-06-07T18:51:35.776Z,5.17
2019-06-07T18:56:42.165Z,0.57
2019-06-07T19:01:49.964Z,4.10
2019-06-07T19:06:56.753Z,3.58
2019-06-07T19:12:02.530Z,4.67
2019-06-07T19:17:09.172Z,0.65
2019-06-07T19:22:18.056Z,2.52
2019-06-07T19:27:26.213Z,4.45
2019-06-07T19:32:34.585Z,3.98
2019-06-07T19:37:41.514Z,3.47
2019-06-07T19:42:47.634Z,1.60
2019-06-07T19:47:54.433Z,0.53
2019-06-07T19:53:04.064Z,0.62
2019-06-07T19:58:10.326Z,1.10
2019-06-07T20:03:20.092Z,1.45
2019-06-07T20:08:26.756Z,1.35
2019-06-07T20:13:34.819Z,0.60
2019-06-07T20:18:41.351Z,1.05
2019-06-07T20:23:49.344Z,2.47
2019-06-07T20:28:55.283Z,0.45
2019-06-07T20:34:05.810Z,0.65
2019-06-07T20:39:13.901Z,0.85
2019-06-07T20:44:24.144Z,1.25
2019-06-07T20:49:32.472Z,0.68
2019-06-07T20:54:41.994Z,0.65
2019-06-07T20:59:50.740Z,2.17
2019-06-07T21:04:57.471Z,1.15
2019-06-07T21:10:06.289Z,0.70
2019-06-07T21:15:14.651Z,0.60
2019-06-07T21:20:21.404Z,0.70
2019-06-07T21:25:28.820Z,0.82
2019-06-07T21:30:34.905Z,0.55
2019-06-07T21:35:41.017Z,0.55
2019-06-07T21:40:46.586Z,0.35
2019-06-07T21:46:04.725Z,1.47
2019-06-07T21:51:02.202Z,1.32
2019-06-07T21:56:09.091Z,0.57
2019-06-07T22:01:26.884Z,0.55
2019-06-07T22:06:33.098Z,0.82
2019-06-07T22:11:39.013Z,0.93
2019-06-07T22:16:44.784Z,0.47
2019-06-07T22:22:02.164Z,0.70
2019-06-07T22:27:00.120Z,0.30
2019-06-07T22:32:08.702Z,0.62
2019-06-07T22:37:18.135Z,0.62
2019-06-07T22:42:24.021Z,0.30
2019-06-07T22:47:30.661Z,2.22
2019-06-07T22:52:38.775Z,0.35
2019-06-07T22:57:58.533Z,0.70
2019-06-07T23:03:06.198Z,0.40
2019-06-07T23:08:12.954Z,1.37
2019-06-07T23:13:19.918Z,0.70
2019-06-07T23:18:26.798Z,1.37
2019-06-07T23:23:33.507Z,0.57
2019-06-07T23:28:40.609Z,1.82
2019-06-07T23:33:46.658Z,0.30
2019-06-07T23:38:52.062Z,0.40
2019-06-07T23:43:59.535Z,2.25
2019-06-07T23:49:05.032Z,1.37
2019-06-07T23:54:11.872Z,1.35
2019-06-07T23:59:20.171Z,0.95
